地図

経路データ

SID SEASON NUMBER BASIN SUBBASIN NAME ISO_TIME NATURE LAT LON WMO_WIND WMO_PRES WMO_AGENCY TRACK_TYPE DIST2LAND LANDFALL IFLAG USA_AGENCY USA_ATCF_ID USA_LAT USA_LON USA_RECORD USA_STATUS USA_WIND USA_PRES USA_SSHS USA_R34_NE USA_R34_SE USA_R34_SW USA_R34_NW USA_R50_NE USA_R50_SE USA_R50_SW USA_R50_NW USA_R64_NE USA_R64_SE USA_R64_SW USA_R64_NW USA_POCI USA_ROCI USA_RMW USA_EYE TOKYO_LAT TOKYO_LON TOKYO_GRADE TOKYO_WIND TOKYO_PRES TOKYO_R50_DIR TOKYO_R50_LONG TOKYO_R50_SHORT TOKYO_R30_DIR TOKYO_R30_LONG TOKYO_R30_SHORT TOKYO_LAND CMA_LAT CMA_LON CMA_CAT CMA_WIND CMA_PRES HKO_LAT HKO_LON HKO_CAT HKO_WIND HKO_PRES NEWDELHI_LAT NEWDELHI_LON NEWDELHI_GRADE NEWDELHI_WIND NEWDELHI_PRES NEWDELHI_CI NEWDELHI_DP NEWDELHI_POCI REUNION_LAT REUNION_LON REUNION_TYPE REUNION_WIND REUNION_PRES REUNION_TNUM REUNION_CI REUNION_RMW REUNION_R34_NE REUNION_R34_SE REUNION_R34_SW REUNION_R34_NW REUNION_R50_NE REUNION_R50_SE REUNION_R50_SW REUNION_R50_NW REUNION_R64_NE REUNION_R64_SE REUNION_R64_SW REUNION_R64_NW BOM_LAT BOM_LON BOM_TYPE BOM_WIND BOM_PRES BOM_TNUM BOM_CI BOM_RMW BOM_R34_NE BOM_R34_SE BOM_R34_SW BOM_R34_NW BOM_R50_NE BOM_R50_SE BOM_R50_SW BOM_R50_NW BOM_R64_NE BOM_R64_SE BOM_R64_SW BOM_R64_NW BOM_ROCI BOM_POCI BOM_EYE BOM_POS_METHOD BOM_PRES_METHOD NADI_LAT NADI_LON NADI_CAT NADI_WIND NADI_PRES WELLINGTON_LAT WELLINGTON_LON WELLINGTON_WIND WELLINGTON_PRES DS824_LAT DS824_LON DS824_STAGE DS824_WIND DS824_PRES TD9636_LAT TD9636_LON TD9636_STAGE TD9636_WIND TD9636_PRES TD9635_LAT TD9635_LON TD9635_WIND TD9635_PRES TD9635_ROCI NEUMANN_LAT NEUMANN_LON NEUMANN_CLASS NEUMANN_WIND NEUMANN_PRES MLC_LAT MLC_LON MLC_CLASS MLC_WIND MLC_PRES USA_GUST BOM_GUST BOM_GUST_PER REUNION_GUST REUNION_GUST_PER USA_SEAHGT USA_SEARAD_NE USA_SEARAD_SE USA_SEARAD_SW USA_SEARAD_NW STORM_SPEED STORM_DIR
1971048S16141 1971 25 SP EA FIONA 1971-02-16 12:00:00 TS -16.0000 141.400 main 0 0 O_____________ jtwc_sh SH211971 -16.0000 141.400 5 -1 1 270
1971048S16141 1971 25 SP EA FIONA 1971-02-16 15:00:00 TS -16.0000 141.327 main 10 10 P_____________ SH211971 -16.0000 141.327 7 -1 2 270
1971048S16141 1971 25 SP EA FIONA 1971-02-16 18:00:00 TS -16.0000 141.200 main 21 21 O_____________ jtwc_sh SH211971 -16.0000 141.200 10 -1 3 270
1971048S16141 1971 25 SP EA FIONA 1971-02-16 20:00:00 TS -16.0000 141.100 1002 bom main 32 32 P_____O_______ SH211971 -16.0000 141.062 10 -1 -16.0000 141.400 1002 3 270
1971048S16141 1971 25 SP EA FIONA 1971-02-16 21:00:00 TS -15.9999 141.022 main 42 42 P_____P_______ SH211971 -16.0000 140.980 10 -1 -15.9993 141.191 1002 6 270
1971048S16141 1971 25 SP EA FIONA 1971-02-16 23:00:00 TS -16.0000 140.798 1004 bom main 64 64 P_____O___O___ SH211971 -16.0000 140.797 10 -1 -16.0000 140.800 1004 -16.0000 140.800 1 10 6 270
1971048S16141 1971 25 SP EA FIONA 1971-02-17 00:00:00 TS -16.0009 140.701 main 74 74 O_____P__OP_O_ jtwc_sh SH211971 -16.0000 140.700 10 -1 -16.0025 140.631 1003 -16.0000 140.700 TC 20 1004 -16.0023 140.698 1 10 -16.0000 141.000 TC 20 1004 6 269
1971048S16141 1971 25 SP EA FIONA 1971-02-17 03:00:00 TS -16.0054 140.392 main 106 106 P_____P__PP_P_ SH211971 -16.0000 140.415 12 -1 -16.0157 140.226 1001 -16.0130 140.390 TC 23 1002 -16.0080 140.390 1 11 -15.9952 140.637 TC 25 1002 6 269
1971048S16141 1971 25 SP EA FIONA 1971-02-17 06:00:00 TS -16.0095 140.087 main 135 128 O_____P__PP_O_ jtwc_sh SH211971 -16.0000 140.100 15 -1 -16.0266 139.928 999 -16.0206 140.074 TC 27 1000 -16.0103 140.072 1 12 -16.0000 140.300 TC 30 1000 6 269
1971048S16141 1971 25 SP EA FIONA 1971-02-17 09:00:00 TS -16.0150 139.779 main 128 119 P_____P__PP_P_ SH211971 -16.0150 139.758 15 -1 -16.0206 139.674 998 -16.0179 139.746 TC 31 998 -16.0068 139.737 1 14 -16.0149 140.000 TC 32 998 6 270
1971048S16141 1971 25 SP EA FIONA 1971-02-17 11:00:00 TS -16.0070 139.560 997 bom main 119 113 P_____O__PO_P_ SH211971 -16.0114 139.519 15 -1 -16.0000 139.500 997 -16.0080 139.518 TC 33 997 -16.0000 139.500 1 15 -16.0114 139.803 TC 34 997 6 273
1971048S16141 1971 25 SP EA FIONA 1971-02-17 12:00:00 TS -15.9980 139.443 main 109 101 O_____P__OP_O_ jtwc_sh SH211971 -16.0000 139.400 15 -1 -15.9930 139.383 996 -16.0000 139.400 TC 35 997 -15.9949 139.377 1 15 -16.0000 139.700 TC 35 997 7 278
1971048S16141 1971 25 SP EA FIONA 1971-02-17 15:00:00 TS -15.9397 139.086 main 112 102 P_____P__PP_P_ SH211971 -15.9224 139.050 17 -1 -15.9555 139.026 993 -15.9590 139.035 TC 38 994 -15.9637 138.998 1 18 -15.9150 139.357 TC 40 994 7 283
1971048S16141 1971 25 SP EA FIONA 1971-02-17 18:00:00 TS -15.8404 138.727 main 112 93 O_____P__PP_O_ jtwc_sh SH211971 -15.8000 138.700 20 -1 -15.8771 138.668 990 -15.8762 138.666 TC 42 991 -15.8890 138.626 1 20 -15.8000 139.000 TC 45 991 7 288
1971048S16141 1971 25 SP EA FIONA 1971-02-17 21:00:00 TS -15.7222 138.375 main 93 77 P_____P__PP_P_ SH211971 -15.6950 138.343 22 -1 -15.7374 138.320 987 -15.7303 138.314 TC 46 988 -15.7458 138.290 1 23 -15.7300 138.643 TC 50 988 7 294
1971048S16141 1971 25 SP EA FIONA 1971-02-17 23:00:00 TS -15.6010 138.155 986 bom main 85 79 P_____O__PO_P_ SH211971 -15.5812 138.111 24 -1 -15.6000 138.100 986 -15.5875 138.099 TC 48 986 -15.6000 138.100 1 25 -15.6562 138.411 TC 53 986 8 303
1971048S16141 1971 25 SP EA FIONA 1971-02-18 00:00:00 TS -15.5191 138.044 main 84 84 O_____P__OP_O_ jtwc_sh SH211971 -15.5000 138.000 25 -1 -15.5274 137.977 985 -15.5000 138.000 TC 50 986 -15.4870 137.988 1 25 -15.6000 138.300 TC 55 986 9 313
1971048S16141 1971 25 SP EA FIONA 1971-02-18 03:00:00 TS -15.1908 137.704 main 104 86 P_____P__PP_P_ SH211971 -15.1375 137.632 25 -1 -15.2477 137.646 984 -15.1883 137.683 TC 52 985 -15.0739 137.684 1 25 -15.3600 137.947 TC 55 985 9 321
1971048S16141 1971 25 SP EA FIONA 1971-02-18 05:00:00 TS -14.9219 137.539 984 bom main 86 77 P_____O__PP_P_ SH211971 -14.8465 137.452 25 -1 -15.0000 137.500 984 -14.9362 137.538 TC 54 984 -14.7690 137.529 1 25 -15.1334 137.763 TC 55 984 9 333
1971048S16141 1971 25 SP EA FIONA 1971-02-18 06:00:00 TS -14.7768 137.485 main 77 43 O_____P__OP_O_ jtwc_sh SH211971 -14.7000 137.400 25 -1 -14.8430 137.439 983 -14.8000 137.500 TC 55 984 -14.6176 137.473 1 25 -15.0000 137.700 TC 55 984 9 351
1971048S16141 1971 25 SP EA FIONA 1971-02-18 09:00:00 TS -14.3097 137.437 main 43 43 P_____P__PP_P_ SH211971 -14.2622 137.373 25 -1 -14.3153 137.388 981 -14.3198 137.488 TC 57 982 -14.2061 137.419 1 25 -14.4923 137.580 TC 57 982 9 4
1971048S16141 1971 25 SP EA FIONA 1971-02-18 11:00:00 TS -14.0298 137.536 980 bom main 63 63 P_____O__PO_P_ SH211971 -14.0046 137.494 25 -1 -14.0000 137.500 980 -14.0209 137.603 TC 59 980 -14.0000 137.500 1 26 -14.1485 137.627 TC 59 980 9 26
1971048S16141 1971 25 SP EA FIONA 1971-02-18 12:00:00 TS -13.9138 137.633 main 76 76 O_____P__OP_O_ jtwc_sh SH211971 -13.9000 137.600 25 -1 -13.8619 137.605 978 -13.9000 137.700 TC 60 980 -13.9208 137.594 1 25 -14.0000 137.700 TC 60 980 10 54
1971048S16141 1971 25 SP EA FIONA 1971-02-18 15:00:00 TS -13.6478 138.086 main 131 131 P_____P__PP_P_ SH211971 -13.6451 138.075 22 -1 -13.5606 138.097 973 -13.6376 138.125 TC 65 975 -13.7606 138.030 1 24 -13.6376 138.111 TC 67 975 11 68
1971048S16141 1971 25 SP EA FIONA 1971-02-18 17:00:00 TS -13.5818 138.481 970 bom main 174 174 P_____O__PP_P_ SH211971 -13.5855 138.488 20 -1 -13.5000 138.500 970 -13.5829 138.501 TC 68 971 -13.7239 138.415 1 23 -13.5131 138.496 TC 72 971 12 84
1971048S16141 1971 25 SP EA FIONA 1971-02-18 18:00:00 TS -13.5905 138.686 main 195 195 O_____P__OP_O_ jtwc_sh SH211971 -13.6000 138.700 20 -1 -13.5146 138.692 968 -13.6000 138.700 TC 70 970 -13.7282 138.624 1 22 -13.5000 138.700 TC 75 970 12 103
1971048S16141 1971 25 SP EA FIONA 1971-02-18 21:00:00 TS -13.7717 139.302 main 237 194 P_____P__PP_P_ SH211971 -13.8026 139.315 20 -1 -13.7439 139.301 963 -13.8047 139.298 TC 77 965 -13.8388 139.278 1 21 -13.6376 139.307 TC 80 965 13 113
1971048S16141 1971 25 SP EA FIONA 1971-02-18 23:00:00 TS -14.0041 139.708 960 bom main 194 174 P_____O__PO_P_ SH211971 -14.0536 139.714 20 -1 -14.0000 139.700 960 4 -14.0552 139.705 TC 82 961 -14.0000 139.700 1 20 -13.8619 139.712 TC 83 961 14 123
1971048S16141 1971 25 SP EA FIONA 1971-02-19 00:00:00 TS -14.1383 139.894 main 174 118 O_____P__OP_O_ jtwc_sh SH211971 -14.2000 139.900 20 -1 -14.1266 139.890 960 -14.2000 139.900 TC 85 960 -14.1032 139.873 1 21 -14.0000 139.900 TC 85 960 13 131
1971048S16141 1971 25 SP EA FIONA 1971-02-19 03:00:00 TS -14.5906 140.391 main 118 87 P_____P__PP_P_ SH211971 -14.6623 140.373 27 -1 -14.5912 140.434 961 -14.6450 140.425 TC 83 961 -14.5284 140.378 1 27 -14.4547 140.365 TC 85 961 14 137
1971048S16141 1971 25 SP EA FIONA 1971-02-19 06:00:00 TS -15.1323 140.847 main 87 21 O_____P__PP_O_ jtwc_sh SH211971 -15.2000 140.800 35 0 -15.1411 140.927 962 -15.1746 140.894 TC 82 962 -15.0779 140.859 1 33 -15.0000 140.800 TC 85 962 14 141
1971048S16141 1971 25 SP EA FIONA 1971-02-19 09:00:00 TS -15.6980 141.305 main 21 0 P_____P__PP_P_ SH211971 -15.7425 141.265 40 0 -15.7221 141.356 964 -15.7419 141.316 TC 81 963 -15.6891 141.314 1 39 -15.5501 141.315 TC 77 963 14 143
1971048S16141 1971 25 SP EA FIONA 1971-02-19 11:00:00 TS -16.0776 141.591 965 bom main 0 0 P_____O__PO_P_ SH211971 -16.1140 141.561 43 0 -16.1000 141.600 965 -16.1179 141.575 TC 80 964 -16.1000 141.600 2 44 -15.9198 141.648 TC 72 964 14 145
1971048S16141 1971 25 SP EA FIONA 1971-02-19 12:00:00 TS -16.2606 141.719 main 0 0 O_____P__OP_O_ jtwc_sh SH211971 -16.3000 141.700 45 0 -16.2816 141.694 967 -16.3000 141.700 TC 80 965 -16.2819 141.718 2 44 -16.1000 141.800 TC 70 965 13 148
1971048S16141 1971 25 SP EA FIONA 1971-02-19 15:00:00 TS -16.7853 142.057 975 bom main 0 0 P_____O__PP_P_ SH211971 -16.8498 142.050 45 0 -16.8000 142.000 975 -16.7858 142.036 TC 70 972 -16.8342 142.042 2 44 -16.5923 142.166 TC 60 972 12 148
1971048S16141 1971 25 SP EA FIONA 1971-02-19 17:00:00 TS -17.1308 142.294 980 bom main 0 0 P_____O__PP_P_ SH211971 -17.2165 142.277 45 0 -17.1000 142.300 980 -17.1222 142.269 TC 63 977 -17.2049 142.256 2 44 -16.9244 142.386 TC 53 977 13 147
1971048S16141 1971 25 SP EA FIONA 1971-02-19 18:00:00 TS -17.3108 142.417 main 0 0 O_____P__OP_O_ jtwc_sh SH211971 -17.4000 142.400 45 0 -17.2749 142.433 981 -17.3000 142.400 TC 60 980 -17.3900 142.370 2 44 -17.1000 142.500 TC 50 980 14 147
1971048S16141 1971 25 SP EA FIONA 1971-02-19 21:00:00 TS -17.8879 142.803 main 0 0 P_____P__PP_P_ SH211971 -17.9570 142.783 45 0 -17.8805 142.807 986 -17.8931 142.849 TC 52 985 -17.9405 142.765 2 44 -17.6995 142.833 TC 45 985 14 145
1971048S16141 1971 25 SP EA FIONA 1971-02-19 23:00:00 TS -18.2751 143.122 990 bom main 0 0 P_____O__PO_P_ SH211971 -18.3221 143.105 45 0 -18.3000 143.100 990 -18.3009 143.204 TC 47 988 -18.3000 143.100 2 44 -18.1058 143.119 TC 41 988 15 140
1971048S16141 1971 25 SP EA FIONA 1971-02-20 00:00:00 TS -18.4606 143.319 main 0 0 O_____P__OP_O_ jtwc_sh SH211971 -18.5000 143.300 45 0 -18.4872 143.298 990 -18.5000 143.400 TC 45 990 -18.4764 143.316 2 42 -18.3000 143.300 TC 40 990 17 129
1971048S16141 1971 25 SP EA FIONA 1971-02-20 03:00:00 TS -18.9823 144.049 main 0 0 P_____P__PP_P_ SH211971 -19.0077 144.048 40 0 -19.0209 144.017 991 -19.0469 144.084 TC 43 991 -18.9953 144.059 2 39 -18.8153 144.040 TC 37 991 18 124
1971048S16141 1971 25 SP EA FIONA 1971-02-20 06:00:00 TS -19.4789 144.887 main 0 0 O_____P__PP_O_ jtwc_sh SH211971 -19.5000 144.900 35 0 -19.5196 144.859 992 -19.5560 144.871 TC 42 992 -19.4980 144.893 2 35 -19.3000 144.900 TC 35 992 19 122
1971048S16141 1971 25 SP EA FIONA 1971-02-20 09:00:00 TS -19.9727 145.723 main 0 0 P_____P__PP_P_ SH211971 -20.0073 145.715 32 -1 -19.9930 145.737 994 -20.0369 145.698 TC 41 993 -19.9844 145.750 2 32 -19.8074 145.723 TC 32 993 18 122
1971048S16141 1971 25 SP EA FIONA 1971-02-20 11:00:00 TS -20.2940 146.263 995 bom main 0 0 P_____O__PO_P_ SH211971 -20.3390 146.245 30 -1 -20.3000 146.300 995 -20.3469 146.240 TC 40 994 -20.3000 146.300 1 30 -20.1390 146.251 TC 30 994 18 121
1971048S16141 1971 25 SP EA FIONA 1971-02-20 12:00:00 TS -20.4345 146.531 main 0 0 O_____P_OOP_O_ jtwc_sh SH211971 -20.5000 146.500 30 -1 -20.4521 146.572 995 -20.0000 146.800 30 997 -20.5000 146.500 TC 40 995 -20.4636 146.549 1 30 -20.3000 146.500 TC 30 995 17 123
1971048S16141 1971 25 SP EA FIONA 1971-02-20 15:00:00 TS -20.8904 147.250 main 0 0 P_____P_PPP_P_ SH211971 -20.9646 147.223 32 -1 -20.8961 147.371 995 -20.5327 147.328 30 997 -20.9918 147.207 TC 38 995 -20.9472 147.273 1 32 -20.7569 147.166 TC 30 995 16 125
1971048S16141 1971 25 SP EA FIONA 1971-02-20 18:00:00 TS -21.3332 147.914 main 0 0 O_____P_PPP_O_ jtwc_sh SH211971 -21.4000 147.900 35 0 -21.3344 148.101 995 -21.0517 147.847 30 997 -21.4663 147.875 TC 37 995 -21.4100 147.956 1 34 -21.2000 147.800 TC 30 995 15 126
1971048S16141 1971 25 SP EA FIONA 1971-02-20 21:00:00 TS -21.7694 148.543 main 0 0 P_____P_PPP_P_ SH211971 -21.8222 148.565 37 0 -21.7845 148.701 995 -21.5448 148.342 30 997 -21.9077 148.506 TC 36 995 -21.8390 148.598 1 35 -21.6651 148.522 TC 27 995 14 127
1971048S16141 1971 25 SP EA FIONA 1971-02-20 23:00:00 TS -22.0502 148.933 996 bom main 0 0 P_____O_PPO_P_ SH211971 -22.0806 148.992 39 0 -22.1000 149.000 996 -21.8532 148.652 30 997 -22.1757 148.906 TC 35 995 -22.1000 149.000 2 37 -21.9615 148.987 TC 25 995 14 128
1971048S16141 1971 25 SP EA FIONA 1971-02-21 00:00:00 TS -22.1853 149.115 main 0 0 O_____P_OOP_O_ jtwc_sh SH211971 -22.2000 149.200 40 0 -22.2760 149.097 995 -22.0000 148.800 30 997 -22.3000 149.100 TC 35 996 -22.2211 149.209 2 38 -22.1000 149.200 TC 25 996 13 127
1971048S16141 1971 25 SP EA FIONA 1971-02-21 02:00:00 TS -22.4343 149.474 995 bom main 0 0 P_____O_PPP_P_ SH211971 -22.4158 149.630 43 0 -22.6000 149.300 995 -22.2771 149.079 30 997 -22.5256 149.508 TC 35 996 -22.4467 149.614 2 40 -22.3595 149.560 TC 25 995 12 126
1971048S16141 1971 25 SP EA FIONA 1971-02-21 03:00:00 TS -22.5444 149.659 main 0 0 P_____P_PPP_P_ SH211971 -22.5150 149.838 45 0 -22.7132 149.490 995 -22.4072 149.210 30 997 -22.6290 149.707 TC 35 996 -22.5523 149.808 2 41 -22.4794 149.723 TC 25 995 12 121
1971048S16141 1971 25 SP EA FIONA 1971-02-21 06:00:00 TS -22.8337 150.207 main 0 0 O_____P_PPP_O_ jtwc_sh SH211971 -22.8000 150.400 50 0 -22.9173 150.248 995 -22.7618 149.576 30 997 -22.9097 150.271 TC 35 996 -22.8473 150.353 2 44 -22.8000 150.200 TC 25 995 11 120
1971048S16141 1971 25 SP EA FIONA 1971-02-21 09:00:00 TS -23.1010 150.700 995 bom main 0 0 P_____O_PPP_P_ SH211971 -23.0998 150.853 50 0 -23.1000 150.900 995 -23.0605 149.904 30 997 -23.1605 150.775 TC 35 996 -23.1213 150.829 2 47 -23.0653 150.788 TC 27 995 10 123
1971048S16141 1971 25 SP EA FIONA 1971-02-21 11:00:00 TS -23.2813 150.959 996 bom main 20 20 P_____O_PPO_P_ SH211971 -23.2999 151.094 50 0 -23.3000 151.100 996 -23.2270 150.104 30 997 -23.3203 151.068 TC 35 996 -23.3000 151.100 2 50 -23.2220 151.148 TC 29 995 9 129
1971048S16141 1971 25 SP EA FIONA 1971-02-21 12:00:00 TS -23.3734 151.074 main 23 23 O_____P_OOP_O_ jtwc_sh SH211971 -23.4000 151.200 50 0 -23.4048 151.196 995 -23.3000 150.200 30 997 -23.4000 151.200 TC 35 996 -23.4093 151.219 2 49 -23.3000 151.300 TC 30 996 8 136
1971048S16141 1971 25 SP EA FIONA 1971-02-21 15:00:00 TS -23.6627 151.357 main 30 22 P_____P_PPP_P_ SH211971 -23.7148 151.473 47 0 -23.7298 151.464 995 -23.4939 150.451 30 997 -23.7048 151.525 TC 36 995 -23.7384 151.515 2 46 -23.5422 151.595 TC 35 995 7 140
1971048S16141 1971 25 SP EA FIONA 1971-02-21 18:00:00 TS -23.9297 151.588 main 22 0 O_____P_PPP_O_ jtwc_sh SH211971 -24.0000 151.700 45 0 -24.0379 151.711 994 -23.6314 150.679 30 997 -23.9961 151.775 TC 37 995 -24.0426 151.749 2 44 -23.8000 151.800 TC 40 995 7 140
1971048S16141 1971 25 SP EA FIONA 1971-02-21 21:00:00 TS -24.1671 151.822 main 0 0 P_____P_PPP_P_ SH211971 -24.2450 151.950 42 0 -24.2873 151.946 994 -23.7282 150.917 30 997 -24.2394 151.988 TC 38 994 -24.2872 151.957 2 41 -24.1375 152.050 TC 40 994 6 135
1971048S16141 1971 25 SP EA FIONA 1971-02-21 23:00:00 TS -24.2843 151.982 994 bom main 10 10 P_____O_PPO_P_ SH211971 -24.3614 152.117 40 0 -24.4000 152.100 994 -23.7779 151.098 30 997 -24.3578 152.127 TC 39 994 -24.4000 152.100 2 40 -24.3316 152.217 TC 40 994 5 125
1971048S16141 1971 25 SP EA FIONA 1971-02-22 00:00:00 TS -24.3244 152.063 main 20 15 O_____P_OOP_O_ jtwc_sh SH211971 -24.4000 152.200 40 0 -24.4364 152.165 994 -23.8000 151.200 30 997 -24.4000 152.200 TC 40 994 -24.4341 152.178 2 39 -24.4000 152.300 TC 40 994 5 107
1971048S16141 1971 25 SP EA FIONA 1971-02-22 03:00:00 TS -24.3754 152.311 main 30 30 P_____P_PPP_P_ SH211971 -24.4374 152.443 37 0 -24.4813 152.358 994 -23.9120 151.554 30 997 -24.4355 152.428 TC 38 994 -24.4715 152.411 2 36 -24.4524 152.543 TC 40 994 5 93
1971048S16141 1971 25 SP EA FIONA 1971-02-22 06:00:00 TS -24.3531 152.583 main 49 49 O_____P_PPP_O_ jtwc_sh SH211971 -24.4000 152.700 35 0 -24.4503 152.592 994 -23.9971 151.959 30 997 -24.3888 152.668 TC 37 995 -24.4359 152.664 2 34 -24.4000 152.800 TC 40 994 5 84
1971048S16141 1971 25 SP EA FIONA 1971-02-22 08:00:00 TS -24.3273 152.782 995 bom main 63 59 P_____O_PPP_P_ SH211971 -24.3798 152.870 33 -1 -24.4000 152.800 995 -24.0282 152.255 30 997 -24.3307 152.850 TC 36 995 -24.3872 152.857 2 32 -24.3853 152.976 TC 38 994 6 81
1971048S16141 1971 25 SP EA FIONA 1971-02-22 09:00:00 TS -24.3093 152.892 main 59 55 P_____P_PPP_P_ SH211971 -24.3648 152.962 32 -1 -24.3730 152.925 995 -24.0336 152.410 30 997 -24.2977 152.950 TC 36 995 -24.3589 152.963 2 31 -24.3723 153.070 TC 37 995 7 78
1971048S16141 1971 25 SP EA FIONA 1971-02-22 11:00:00 TS -24.2617 153.134 996 bom main 55 55 P_____O_PPO_P_ SH211971 -24.3248 153.174 30 -1 -24.3000 153.200 996 -24.0203 152.732 30 997 -24.2310 153.174 TC 35 995 -24.3000 153.200 1 30 -24.3306 153.280 TC 35 995 7 77
1971048S16141 1971 25 SP EA FIONA 1971-02-22 12:00:00 TS -24.2317 153.266 main 67 67 O_____P_OOP_O_ jtwc_sh SH211971 -24.3000 153.300 30 -1 -24.2379 153.324 995 -24.0000 152.900 30 997 -24.2000 153.300 TC 35 996 -24.2844 153.339 1 30 -24.3000 153.400 TC 35 996 8 74
1971048S16141 1971 25 SP EA FIONA 1971-02-22 15:00:00 TS -24.1123 153.723 main 88 88 P_____P_PPP_P_ SH211971 -24.2000 153.763 30 -1 -23.9969 153.694 995 -23.8524 153.457 30 997 -24.1671 153.769 TC 36 995 -24.2273 153.806 1 31 -24.1424 153.813 TC 37 995 9 75
1971048S16141 1971 25 SP EA FIONA 1971-02-22 18:00:00 TS -23.9906 154.242 main 127 127 O_____P_PPP_O_ jtwc_sh SH211971 -24.1000 154.300 30 -1 -23.8095 154.128 994 -23.6388 154.040 30 997 -24.1311 154.304 TC 37 995 -24.1549 154.323 1 32 -24.0000 154.300 TC 40 994 10 78
1971048S16141 1971 25 SP EA FIONA 1971-02-22 20:00:00 TS -23.9430 154.610 994 bom main 165 165 P_____O_PPP_P_ SH211971 -24.0697 154.669 31 -1 -23.8000 154.500 994 -23.4826 154.421 30 997 -24.0992 154.677 TC 38 995 -24.0980 154.678 1 33 -23.9818 154.656 TC 40 994 10 83
1971048S16141 1971 25 SP EA FIONA 1971-02-22 21:00:00 TS -23.9302 154.801 main 182 182 P_____P_PPP_P_ SH211971 -24.0575 154.857 32 -1 -23.8592 154.729 994 -23.4056 154.603 30 997 -24.0795 154.863 TC 38 995 -24.0670 154.854 1 34 -23.9850 154.842 TC 40 994 10 86
1971048S16141 1971 25 SP EA FIONA 1971-02-22 23:00:00 TS -23.9059 155.177 995 bom main 217 217 P_____O_PPO_P_ SH211971 -24.0255 155.225 34 0 -24.0000 155.200 995 -23.2625 154.945 30 997 -24.0303 155.226 TC 39 995 -24.0000 155.200 2 35 -23.9978 155.217 TC 40 994 10 85
1971048S16141 1971 25 SP EA FIONA 1971-02-23 00:00:00 TS -23.8883 155.353 main 235 235 O_____P_OOP_O_ jtwc_sh SH211971 -24.0000 155.400 35 0 -24.0498 155.414 994 -23.2000 155.100 30 997 -24.0000 155.400 TC 40 995 -23.9685 155.359 2 35 -24.0000 155.400 TC 40 995 9 82
1971048S16141 1971 25 SP EA FIONA 1971-02-23 02:00:00 TS -23.8380 155.676 994 bom main 267 267 P_____O_PPP_P_ SH211971 -23.9156 155.721 35 0 -24.1000 155.800 994 -23.1180 155.354 30 997 -23.9249 155.709 TC 40 994 -23.9011 155.672 2 35 -23.9908 155.752 TC 40 994 9 79
1971048S16141 1971 25 SP EA FIONA 1971-02-23 03:00:00 TS -23.8048 155.827 main 276 276 P_____P_PPP_P_ SH211971 -23.8648 155.873 35 0 -24.0929 155.973 993 -23.0839 155.467 30 997 -23.8821 155.858 TC 40 994 -23.8649 155.826 2 35 -23.9799 155.922 TC 40 994 8 73
1971048S16141 1971 25 SP EA FIONA 1971-02-23 06:00:00 TS -23.6758 156.249 main 318 318 O_____P_PPP_O_ jtwc_sh SH211971 -23.7000 156.300 35 0 -23.9455 156.409 993 -23.0036 155.766 30 997 -23.7366 156.287 TC 40 994 -23.7449 156.279 2 35 -23.9000 156.400 TC 40 993 8 69
1971048S16141 1971 25 SP EA FIONA 1971-02-23 09:00:00 TS -23.5211 156.633 main 364 364 P_____P_PPP_P_ SH211971 -23.5573 156.700 35 0 -23.6862 156.769 993 -22.9466 156.033 30 997 -23.5728 156.698 TC 40 993 -23.6054 156.716 2 35 -23.7223 156.815 TC 40 993 8 65
1971048S16141 1971 25 SP EA FIONA 1971-02-23 11:00:00 TS -23.4084 156.882 993 bom main 397 397 P_____O_PPO_P_ SH211971 -23.4556 156.963 35 0 -23.5000 157.000 993 -22.9152 156.209 30 997 -23.4581 156.967 TC 40 993 -23.5000 157.000 2 35 -23.5744 157.072 TC 40 993 8 64
1971048S16141 1971 25 SP EA FIONA 1971-02-23 12:00:00 TS -23.3525 157.012 main 406 406 O_____P_OOP_O_ jtwc_sh SH211971 -23.4000 157.100 35 0 -23.4289 157.138 992 -22.9000 156.300 30 997 -23.4000 157.100 TC 40 993 -23.4384 157.145 2 34 -23.5000 157.200 TC 40 993 8 65
1971048S16141 1971 25 SP EA FIONA 1971-02-23 15:00:00 TS -23.1741 157.427 main 452 452 P_____P_PPP_P_ SH211971 -23.2001 157.558 35 0 -23.2128 157.554 992 -22.8509 156.622 30 997 -23.2199 157.524 TC 41 992 -23.2351 157.571 2 34 -23.2999 157.600 TC 42 992 8 65
1971048S16141 1971 25 SP EA FIONA 1971-02-23 18:00:00 TS -22.9951 157.833 main 499 499 O_____P_PPP_O_ jtwc_sh SH211971 -23.0000 158.000 35 0 -23.0025 157.964 991 -22.8074 156.950 30 997 -23.0349 157.938 TC 42 992 -23.0211 157.979 2 33 -23.1000 158.000 TC 45 992 8 65
1971048S16141 1971 25 SP EA FIONA 1971-02-23 21:00:00 TS -22.8309 158.210 main 546 546 P_____P_PPP_P_ SH211971 -22.8423 158.365 35 0 -22.8109 158.356 991 -22.7602 157.278 30 997 -22.8575 158.333 TC 43 991 -22.8183 158.362 2 33 -22.8850 158.415 TC 45 991 8 65
1971048S16141 1971 25 SP EA FIONA 1971-02-23 23:00:00 TS -22.7316 158.447 991 bom main 569 578 P_____O_PPO_P_ SH211971 -22.7473 158.588 35 0 -22.7000 158.600 991 -22.7221 157.494 30 997 -22.7495 158.581 TC 44 991 -22.7000 158.600 1 33 -22.7553 158.678 TC 45 991 7 66
1971048S16141 1971 25 SP EA FIONA 1971-02-24 00:00:00 TS -22.6863 158.563 main 587 586 O_____P_OOP_O_ jtwc_sh SH211971 -22.7000 158.700 35 0 -22.6519 158.719 991 -22.7000 157.600 30 997 -22.7000 158.700 TC 45 991 -22.6519 158.719 1 33 -22.7000 158.800 TC 45 991 7 67
1971048S16141 1971 25 SP EA FIONA 1971-02-24 03:00:00 TS -22.5568 158.902 main 586 554 P_____P_PPP_P_ SH211971 -22.5350 159.065 35 0 -22.5294 159.058 991 -22.6101 157.907 32 995 -22.5741 159.049 TC 43 991 -22.5294 159.058 1 34 -22.5849 159.115 TC 45 991 6 68
1971048S16141 1971 25 SP EA FIONA 1971-02-24 06:00:00 TS -22.4487 159.215 main 549 521 O_____P_PPP_O_ jtwc_sh SH211971 -22.4000 159.400 35 0 -22.4320 159.366 992 -22.5072 158.208 35 993 -22.4698 159.367 TC 42 992 -22.4320 159.366 1 35 -22.5000 159.400 TC 45 992 6 71
1971048S16141 1971 25 SP EA FIONA 1971-02-24 09:00:00 TS -22.3667 159.502 main 521 498 P_____P_PPP_P_ SH211971 -22.3424 159.680 35 0 -22.3504 159.639 992 -22.4007 158.504 37 991 -22.3805 159.652 TC 41 992 -22.3504 159.639 1 36 -22.4000 159.723 TC 42 992 5 73
1971048S16141 1971 25 SP EA FIONA 1971-02-24 11:00:00 TS -22.3180 159.672 993 bom main 498 498 P_____O_PPO_P_ SH211971 -22.3171 159.833 35 0 -22.3000 159.800 993 -22.3324 158.701 39 990 -22.3263 159.822 TC 40 992 -22.3000 159.800 2 37 -22.3334 159.917 TC 40 992 5 72
1971048S16141 1971 25 SP EA FIONA 1971-02-24 12:00:00 TS -22.2922 159.750 main 498 474 O_____P_OOP_O_ jtwc_sh SH211971 -22.3000 159.900 35 0 -22.2727 159.874 992 -22.3000 158.800 40 990 -22.3000 159.900 TC 40 993 -22.2727 159.874 2 36 -22.3000 160.000 TC 40 993 4 65
1971048S16141 1971 25 SP EA FIONA 1971-02-24 15:00:00 TS -22.2024 159.941 main 474 451 P_____P_PPP_P_ SH211971 -22.1999 160.057 35 0 -22.1971 160.067 992 -22.2090 159.067 40 990 -22.2215 160.107 TC 41 992 -22.1971 160.067 2 36 -22.1924 160.165 TC 42 992 4 63
1971048S16141 1971 25 SP MM FIONA 1971-02-24 18:00:00 TS -22.1183 160.112 main 451 433 O_____P_PPP_O_ jtwc_sh SH211971 -22.1000 160.200 35 0 -22.1259 160.233 992 -22.1265 159.340 40 990 -22.1496 160.280 TC 42 992 -22.1259 160.233 2 35 -22.1000 160.300 TC 45 992 4 67
1971048S16141 1971 25 SP MM FIONA 1971-02-24 21:00:00 TS -22.0578 160.306 main 433 418 P_____P_PPP_P_ SH211971 -22.0575 160.392 35 0 -22.0529 160.391 992 -22.0557 159.642 40 990 -22.0778 160.438 TC 43 992 -22.0529 160.391 2 35 -22.0500 160.492 TC 45 992 4 72
1971048S16141 1971 25 SP MM FIONA 1971-02-24 23:00:00 TS -22.0163 160.444 main 418 409 P_____O_PPO_P_ SH211971 -22.0255 160.531 35 0 -22.0000 160.500 992 -22.0167 159.873 40 990 -22.0270 160.544 TC 44 992 -22.0000 160.500 2 35 -22.0198 160.631 TC 45 992 4 71
1971048S16141 1971 25 SP MM FIONA 1971-02-25 00:00:00 TS -21.9907 160.519 40 990 wellington main 409 386 O_____P_OOP_O_ jtwc_sh SH211971 -22.0000 160.600 35 0 -21.9676 160.566 992 -22.0000 160.000 40 990 -22.0000 160.600 TC 45 992 -21.9676 160.566 2 35 -22.0000 160.700 TC 45 992 5 66
1971048S16141 1971 25 SP MM FIONA 1971-02-25 03:00:00 TS -21.8868 160.763 main 377 353 P_____P_PPP_P_ SH211971 -21.8500 160.808 35 0 -21.8637 160.770 992 -21.9738 160.483 40 990 -21.8991 160.801 TC 45 992 -21.8637 160.770 2 35 -21.9075 160.900 TC 45 992 5 65
1971048S16141 1971 25 SP MM FIONA 1971-02-25 06:00:00 TS -21.7809 161.011 main 353 330 O_____P_PPP_O_ jtwc_sh SH211971 -21.7000 161.000 35 0 -21.7574 160.976 992 -21.9590 161.015 40 990 -21.7926 161.008 TC 45 992 -21.7574 160.976 2 35 -21.8000 161.100 TC 45 992 5 68
1971048S16141 1971 25 SP MM FIONA 1971-02-25 09:00:00 TS -21.7011 161.246 main 330 311 P_____P_PPP_P_ SH211971 -21.6350 161.157 35 0 -21.6579 161.176 992 -21.9395 161.539 40 990 -21.6897 161.210 TC 45 992 -21.6579 161.176 2 35 -21.6925 161.308 TC 45 992 5 71
1971048S16141 1971 25 SP MM FIONA 1971-02-25 11:00:00 TS -21.6564 161.391 main 311 306 P_____O_PPO_P_ SH211971 -21.6114 161.253 35 0 -21.6000 161.300 992 -21.9163 161.857 40 990 -21.6279 161.339 TC 45 992 -21.6000 161.300 2 35 -21.6276 161.439 TC 45 992 4 72
1971048S16141 1971 25 SP MM FIONA 1971-02-25 12:00:00 TS -21.6362 161.459 40 990 wellington main 297 288 O_____P_OOP_O_ jtwc_sh SH211971 -21.6000 161.300 35 0 -21.5766 161.357 992 -21.9000 162.000 40 990 -21.6000 161.400 TC 45 992 -21.5766 161.357 2 34 -21.6000 161.500 TC 45 992 4 72
1971048S16141 1971 25 SP MM FIONA 1971-02-25 15:00:00 TS -21.5797 161.647 main 288 264 P_____P_PPP_P_ SH211971 -21.5500 161.450 32 -1 -21.5174 161.516 992 -21.8454 162.371 40 990 -21.5355 161.568 TC 43 992 -21.5174 161.516 2 33 -21.5425 161.657 TC 45 992 3 72
1971048S16141 1971 25 SP MM FIONA 1971-02-25 18:00:00 TS -21.5274 161.816 main 264 247 O_____P_PPP_O_ jtwc_sh SH211971 -21.5000 161.600 30 -1 -21.4700 161.663 992 -21.7668 162.665 40 990 -21.4849 161.722 TC 42 992 -21.4700 161.663 2 32 -21.5000 161.800 TC 45 992 3 70
1971048S16141 1971 25 SP MM FIONA 1971-02-25 21:00:00 TS -21.4718 161.972 main 247 232 P_____P_PPP_P_ SH211971 -21.4500 161.750 30 -1 -21.4280 161.805 992 -21.6549 162.877 40 990 -21.4418 161.865 TC 41 992 -21.4280 161.805 2 30 -21.4500 161.950 TC 42 992 3 68
1971048S16141 1971 25 SP MM FIONA 1971-02-25 23:00:00 TS -21.4316 162.068 main 232 232 P_____O_PPO_P_ SH211971 -21.4167 161.850 30 -1 -21.4000 161.900 993 -21.5570 162.969 40 990 -21.4142 161.956 TC 40 992 -21.4000 161.900 1 30 -21.4167 162.050 TC 40 992 3 64
1971048S16141 1971 25 SP MM FIONA 1971-02-26 00:00:00 TS -21.4102 162.115 40 990 wellington main 232 217 O_____P_OOP_O_ jtwc_sh SH211971 -21.4000 161.900 30 -1 -21.3858 161.951 993 -21.5000 163.000 40 990 -21.4000 162.000 TC 40 993 -21.3858 161.951 1 30 -21.4000 162.100 TC 40 993 3 61
1971048S16141 1971 25 SP MM FIONA 1971-02-26 03:00:00 TS -21.3384 162.250 main 217 200 P_____P_PPP_P_ SH211971 -21.3500 162.050 30 -1 -21.3442 162.105 993 -21.2725 163.056 40 990 -21.3581 162.132 TC 40 993 -21.3442 162.105 1 30 -21.3500 162.250 TC 40 993 3 58
1971048S16141 1971 25 SP MM FIONA 1971-02-26 06:00:00 TS -21.2601 162.371 main 200 185 O_____P_PPP_O_ jtwc_sh SH211971 -21.3000 162.200 30 -1 -21.2993 162.258 993 -21.0072 163.027 40 990 -21.3149 162.257 TC 40 993 -21.2993 162.258 1 30 -21.3000 162.400 TC 40 993 3 54
1971048S16141 1971 25 SP MM FIONA 1971-02-26 09:00:00 TS -21.1806 162.483 main 185 170 P_____P_PPP_P_ SH211971 -21.2575 162.350 30 -1 -21.2447 162.406 993 -20.7382 162.934 40 990 -21.2643 162.379 TC 40 993 -21.2447 162.406 1 30 -21.2575 162.557 TC 40 993 3 51
1971048S16141 1971 25 SP MM FIONA 1971-02-26 11:00:00 TS -21.1235 162.552 main 170 170 P_____O_PPO_P_ SH211971 -21.2224 162.450 30 -1 -21.2000 162.500 993 -20.5739 162.848 40 990 -21.2234 162.460 TC 40 993 -21.2000 162.500 1 30 -21.2224 162.656 TC 40 993 3 48
1971048S16141 1971 25 SP MM FIONA 1971-02-26 12:00:00 TS -21.0920 162.586 40 990 wellington main 170 156 O_____P_OOP_O_ jtwc_sh SH211971 -21.2000 162.500 30 -1 -21.1721 162.550 993 -20.5000 162.800 40 990 -21.2000 162.500 TC 40 993 -21.1721 162.550 1 29 -21.2000 162.700 TC 40 993 3 41
1971048S16141 1971 25 SP MM FIONA 1971-02-26 15:00:00 TS -20.9807 162.685 main 156 141 P_____P_PPP_P_ SH211971 -21.1075 162.658 27 -1 -21.0771 162.696 993 -20.2783 162.644 40 990 -21.1103 162.641 TC 40 993 -21.0771 162.696 1 26 -21.1075 162.800 TC 40 993 3 37
1971048S16141 1971 25 SP MM FIONA 1971-02-26 18:00:00 TS -20.8645 162.771 main 141 136 O_____P_PPP_O_ jtwc_sh SH211971 -21.0000 162.800 25 -1 -20.9720 162.830 994 -20.1003 162.457 40 990 -21.0076 162.780 TC 40 994 -20.9720 162.830 1 24 -21.0000 162.900 TC 40 994 3 35
1971048S16141 1971 25 SP MM FIONA 1971-02-26 21:00:00 TS -20.7615 162.850 main 136 122 P_____P_PPP_P_ SH211971 -20.9000 162.915 22 -1 -20.8662 162.942 994 -19.9970 162.266 40 990 -20.9010 162.904 TC 40 994 -20.8662 162.942 1 21 -20.9000 163.065 TC 40 994 2 35
1971048S16141 1971 25 SP MM FIONA 1971-02-26 23:00:00 TS -20.7025 162.891 main 122 122 P_____O_PPO_P_ SH211971 -20.8333 162.975 20 -1 -20.8000 163.000 995 -19.9853 162.151 40 990 -20.8325 162.972 TC 40 994 -20.8000 163.000 1 20 -20.8334 163.165 TC 40 994 2 30
1971048S16141 1971 25 SP MM FIONA 1971-02-27 00:00:00 TS -20.6778 162.909 40 990 wellington main 122 119 O_____P_OOP_O_ jtwc_sh SH211971 -20.8000 163.000 20 -1 -20.7739 163.031 995 -20.0000 162.100 40 990 -20.8000 163.000 TC 40 995 -20.7704 163.029 1 21 -20.8000 163.200 TC 40 995 1 36
1971048S16141 1971 25 SP MM FIONA 1971-02-27 03:00:00 TS -20.6180 162.944 main 119 109 P_____P_PPP_P_ SH211971 -20.6925 163.065 25 -1 -20.7020 163.107 995 -20.1462 161.976 37 991 -20.7137 163.082 TC 40 995 -20.6866 163.098 1 25 -20.6925 163.215 TC 40 995 1 24
1971048S16141 1971 25 SP MM FIONA 1971-02-27 06:00:00 TS -20.5819 162.956 main 109 109 O_____P_PPP_O_ jtwc_sh SH211971 -20.6000 163.100 30 -1 -20.6329 163.146 995 -20.3949 161.883 35 993 -20.6349 163.132 TC 40 995 -20.6103 163.133 1 29 -20.6000 163.200 TC 40 995 1 0
1971048S16141 1971 25 SP MM FIONA 1971-02-27 09:00:00 TS -20.5695 162.963 main 109 109 P_____P_PPP_P_ SH211971 -20.5425 163.123 32 -1 -20.5578 163.138 995 -20.6962 161.823 32 995 -20.5636 163.142 TC 40 995 -20.5416 163.128 1 34 -20.5425 163.265 TC 40 995 0 0
1971048S16141 1971 25 SP MM FIONA 1971-02-27 11:00:00 TS -20.5663 162.950 main 119 119 P_____O_PPO_P_ SH211971 -20.5140 163.114 34 0 -20.5000 163.100 995 -20.9015 161.803 30 996 -20.5204 163.120 TC 40 995 -20.5000 163.100 2 37 -20.5140 163.298 TC 40 995 1 0
1971048S16141 1971 25 SP MM FIONA 1971-02-27 12:00:00 TS -20.5624 162.936 30 997 wellington main 119 116 O_____P_OOP_O_ jtwc_sh SH211971 -20.5000 163.100 35 0 -20.4653 163.072 995 -21.0000 161.800 30 997 -20.5000 163.100 TC 40 995 -20.4714 163.082 2 35 -20.5000 163.300 TC 40 995 1 291
1971048S16141 1971 25 SP MM FIONA 1971-02-27 14:00:00 TS -20.5466 162.896 main 116 116 P_____O_PPP_P_ SH211971 -20.4666 163.060 31 -1 -20.4000 163.000 995 -21.1505 161.820 30 997 -20.4617 163.041 TC 39 995 -20.4143 163.030 2 32 -20.4667 163.262 TC 40 995 1 294
1971048S16141 1971 25 SP MM FIONA 1971-02-27 15:00:00 TS -20.5394 162.870 main 116 116 P_____P_PPP_P_ SH211971 -20.4500 163.030 30 -1 -20.3712 162.964 995 -21.2241 161.838 30 997 -20.4436 163.002 TC 38 995 -20.3874 162.997 2 31 -20.4500 163.230 TC 40 995 2 281
1971048S16141 1971 25 SP MM FIONA 1971-02-27 18:00:00 TS -20.5233 162.769 main 127 127 O_____P_PPP_O_ jtwc_sh SH211971 -20.4000 162.900 25 -1 -20.3069 162.845 995 -21.4425 161.907 30 997 -20.3928 162.860 TC 37 996 -20.3209 162.872 2 27 -20.4000 163.100 TC 40 995 2 276
1971048S16141 1971 25 SP MM FIONA 1971-02-27 21:00:00 TS -20.5159 162.635 main 147 147 P_____P_PPP_P_ SH211971 -20.3275 162.707 22 -1 -20.2851 162.705 996 -21.6647 161.972 30 997 -20.3455 162.687 TC 36 996 -20.2907 162.716 2 22 -20.3275 162.965 TC 37 996 3 267
1971048S16141 1971 25 SP MM FIONA 1971-02-27 23:00:00 TS -20.5347 162.534 main 157 157 P_____O_PPO_P_ SH211971 -20.2996 162.566 20 -1 -20.3000 162.600 997 -21.8195 161.997 30 997 -20.3151 162.563 TC 35 996 -20.3000 162.600 1 20 -20.2995 162.858 TC 35 996 3 245
1971048S16141 1971 25 SP MM FIONA 1971-02-28 00:00:00 TS -20.5840 162.480 30 997 wellington main 159 159 O_____P_OOP_O_ jtwc_sh SH211971 -20.3000 162.500 20 -1 -20.3174 162.543 997 -21.9000 162.000 30 997 -20.3000 162.500 TC 35 997 -20.3153 162.539 1 20 -20.3000 162.800 TC 35 997 4 224
1971048S16141 1971 25 SP MM FIONA 1971-02-28 03:00:00 TS -20.7421 162.320 main 182 182 P_____P_P_P_P_ SH211971 -20.3700 162.335 20 -1 -20.4055 162.359 998 -22.1647 161.951 30 997 TC -20.4002 162.349 1 21 -20.3700 162.608 TC 32 998 5 217
1971048S16141 1971 25 SP MM FIONA 1971-02-28 06:00:00 TS -20.9978 162.147 main 212 212 O_____P_P_P_O_ jtwc_sh SH211971 -20.5000 162.200 20 -1 -20.5349 162.157 999 -22.4425 161.860 30 997 TC -20.5299 162.148 1 22 -20.5000 162.400 TC 30 999 8 208
1971048S16141 1971 25 SP MM FIONA 1971-02-28 09:00:00 TS -21.4176 161.938 main 250 250 ______P_P_P_P_ SH211971 -1 -20.6900 161.945 1000 -22.7241 161.739 30 997 TC -20.6877 161.940 1 24 -20.6475 162.198 TC 27 1000 11 202
1971048S16141 1971 25 SP MM FIONA 1971-02-28 11:00:00 TS -21.8418 161.790 main 283 289 ______O_P_O_P_ SH211971 -1 -20.8000 161.800 1001 -22.9092 161.647 30 997 TC -20.8000 161.800 1 25 -20.7489 162.066 TC 25 1000 23 192
1971048S16141 1971 25 SP MM FIONA 1971-02-28 12:00:00 TS -22.5600 161.680 30 997 wellington main 343 343 ________O___O_ -1 -23.0000 161.600 30 997 1 -20.8000 162.000 TC 25 1001 22 192
1971048S16141 1971 25 SP MM FIONA 1971-02-28 15:00:00 NR -23.2632 161.454 main 408 408 ________P_____ -1 -23.2632 161.454 30 997 1 TC 10 200
1971048S16141 1971 25 SP MM FIONA 1971-02-28 18:00:00 NR -23.5151 161.305 main 438 438 ________P_____ -1 -23.5151 161.305 30 997 1 6 209
1971048S16141 1971 25 SP MM FIONA 1971-02-28 21:00:00 NR -23.7595 161.153 main 464 464 ________P_____ -1 -23.7595 161.153 30 997 1 6 210
1971048S16141 1971 25 SP MM FIONA 1971-03-01 00:00:00 NR -24.0000 161.000 30 997 wellington main 494 ________O_____ -1 -24.0000 161.000 30 997 6 211

デジタル台風データ・検索

IBTrACS Databaseについて

本データベースは、米国NOAAが公開する1842年以降の世界の熱帯低気圧のベストトラックデータアーカイブInternational Best Track Archive for Climate Stewardship (IBTrACS)を、ウェブで閲覧しやすい形式に変換したものです。

最終更新日:2021-10-19